createdAt,value
2022-10-22T00:02:23.492Z,98810.09
2022-10-22T00:04:50.620Z,98805.17
2022-10-22T00:07:18.007Z,98801.52
2022-10-22T00:09:44.557Z,98800.77
2022-10-22T00:12:11.558Z,98791.91
2022-10-22T00:14:38.276Z,98785.50
2022-10-22T00:17:07.009Z,98779.05
2022-10-22T00:19:38.997Z,98780.72
2022-10-22T00:22:06.625Z,98781.72
2022-10-22T00:24:34.378Z,98775.28
2022-10-22T00:27:01.690Z,98775.90
2022-10-22T00:29:28.355Z,98773.67
2022-10-22T00:34:26.882Z,98766.00
2022-10-22T00:36:53.915Z,98756.61
2022-10-22T00:39:23.051Z,98749.14
2022-10-22T00:41:51.210Z,98741.88
2022-10-22T00:44:55.769Z,98739.52
2022-10-22T00:47:24.363Z,98740.52
2022-10-22T00:49:52.710Z,98746.16
2022-10-22T00:52:19.938Z,98739.59
2022-10-22T00:54:46.506Z,98742.19
2022-10-22T00:57:13.032Z,98743.48
2022-10-22T00:59:40.044Z,98749.11
2022-10-22T01:02:06.646Z,98763.34
2022-10-22T01:04:33.076Z,98777.57
2022-10-22T01:07:00.146Z,98789.47
2022-10-22T01:09:42.238Z,98784.74
2022-10-22T01:12:19.175Z,98769.81
2022-10-22T01:14:48.552Z,98768.58
2022-10-22T01:17:24.379Z,98774.73
2022-10-22T01:20:06.121Z,98782.27
2022-10-22T01:22:39.908Z,98765.86
2022-10-22T01:25:31.925Z,98738.27
2022-10-22T01:28:11.231Z,98737.02
2022-10-22T01:30:39.786Z,98741.00
2022-10-22T01:33:09.800Z,98740.41
2022-10-22T01:35:43.270Z,98741.52
2022-10-22T01:38:16.421Z,98742.23
2022-10-22T01:40:43.685Z,98736.75
2022-10-22T01:43:10.946Z,98733.05
2022-10-22T01:45:45.987Z,98733.83
2022-10-22T01:48:34.557Z,98735.98
2022-10-22T01:51:20.889Z,98733.59
2022-10-22T01:54:02.050Z,98731.44
2022-10-22T01:57:06.538Z,98720.30
2022-10-22T01:59:44.892Z,98719.58
2022-10-22T02:02:29.581Z,98730.05
2022-10-22T02:05:08.018Z,98733.70
2022-10-22T02:07:44.247Z,98734.35
2022-10-22T02:10:12.213Z,98746.88
2022-10-22T02:12:42.158Z,98756.73
2022-10-22T02:15:11.448Z,98759.15
2022-10-22T02:17:39.251Z,98756.31
2022-10-22T02:20:12.160Z,98756.36
2022-10-22T02:22:39.565Z,98750.33
2022-10-22T02:25:07.337Z,98741.40
2022-10-22T02:28:15.023Z,98732.16
2022-10-22T02:30:45.998Z,98730.36
2022-10-22T02:33:19.521Z,98720.89
2022-10-22T02:35:47.882Z,98720.38
2022-10-22T02:38:14.702Z,98716.54
2022-10-22T02:40:41.761Z,98718.33
2022-10-22T02:43:08.271Z,98721.41
2022-10-22T02:45:35.474Z,98722.55
2022-10-22T02:48:03.929Z,98722.61
2022-10-22T02:50:30.607Z,98728.37
2022-10-22T02:52:57.115Z,98728.50
2022-10-22T02:55:23.529Z,98727.88
2022-10-22T02:57:50.209Z,98725.86
2022-10-22T03:00:17.238Z,98725.38
2022-10-22T03:02:43.668Z,98724.79
2022-10-22T03:05:10.417Z,98724.65
2022-10-22T03:07:36.873Z,98727.17
2022-10-22T03:10:03.770Z,98730.39
2022-10-22T03:12:30.312Z,98730.52
2022-10-22T03:14:56.728Z,98733.69
2022-10-22T03:17:23.989Z,98738.77
2022-10-22T03:19:50.440Z,98741.98
2022-10-22T03:22:25.902Z,98740.20
2022-10-22T03:24:55.152Z,98741.40
2022-10-22T03:27:22.625Z,98742.24
2022-10-22T03:29:52.018Z,98743.13
2022-10-22T03:32:18.552Z,98741.75
2022-10-22T03:34:45.081Z,98739.29
2022-10-22T03:37:11.968Z,98737.79
2022-10-22T03:39:38.712Z,98735.99
2022-10-22T03:42:06.845Z,98739.58
2022-10-22T03:44:37.994Z,98739.63
2022-10-22T03:47:04.477Z,98732.70
2022-10-22T03:49:30.886Z,98732.58
2022-10-22T03:51:57.902Z,98732.62
2022-10-22T03:54:24.474Z,98733.28
2022-10-22T03:56:50.911Z,98728.61
2022-10-22T03:59:17.405Z,98724.42
2022-10-22T04:01:44.060Z,98718.41
2022-10-22T04:04:10.513Z,98707.83
2022-10-22T04:06:36.966Z,98705.00
2022-10-22T04:09:03.639Z,98706.34
2022-10-22T04:11:30.092Z,98706.78
2022-10-22T04:13:56.515Z,98709.16
2022-10-22T04:16:25.073Z,98705.64
2022-10-22T04:18:54.004Z,98702.54
2022-10-22T04:21:20.454Z,98702.70
2022-10-22T04:23:49.009Z,98703.45
2022-10-22T04:26:16.672Z,98719.98
2022-10-22T04:28:44.128Z,98730.63
2022-10-22T04:31:16.217Z,98734.91
2022-10-22T04:33:42.678Z,98737.52
2022-10-22T04:36:14.154Z,98739.91
2022-10-22T04:38:42.587Z,98737.27
2022-10-22T04:41:18.264Z,98735.91
2022-10-22T04:43:45.546Z,98738.06
2022-10-22T04:46:13.113Z,98742.73
2022-10-22T04:48:41.566Z,98743.02
2022-10-22T04:51:11.344Z,98742.22
2022-10-22T04:53:39.746Z,98744.08
2022-10-22T04:59:30.818Z,98743.53
2022-10-22T05:01:58.655Z,98746.30
2022-10-22T05:04:26.699Z,98746.70
2022-10-22T05:06:54.542Z,98741.38
2022-10-22T05:09:22.490Z,98737.09
2022-10-22T05:11:52.810Z,98737.32
2022-10-22T05:14:23.242Z,98743.17
2022-10-22T05:16:51.812Z,98741.04
2022-10-22T05:19:26.475Z,98748.56
2022-10-22T05:21:56.983Z,98758.48
2022-10-22T05:24:26.427Z,98761.63
2022-10-22T05:26:57.433Z,98770.14
2022-10-22T05:29:25.970Z,98783.84
2022-10-22T05:31:53.817Z,98789.77
2022-10-22T05:34:21.686Z,98796.80
2022-10-22T05:36:49.496Z,98805.37
2022-10-22T05:39:17.307Z,98802.06
2022-10-22T05:41:45.117Z,98799.44
2022-10-22T05:44:14.132Z,98799.42
2022-10-22T05:46:43.529Z,98794.56
2022-10-22T05:49:14.616Z,98785.45
2022-10-22T05:51:43.048Z,98787.27
2022-10-22T05:54:22.334Z,98782.18
2022-10-22T05:56:50.248Z,98786.11
2022-10-22T05:59:18.465Z,98789.55
2022-10-22T06:01:46.518Z,98783.98
2022-10-22T06:04:16.224Z,98779.92
2022-10-22T06:06:47.291Z,98778.61
2022-10-22T06:09:29.178Z,98780.08
2022-10-22T06:11:58.236Z,98779.35
2022-10-22T06:14:26.791Z,98780.63
2022-10-22T06:16:55.509Z,98775.61
2022-10-22T06:19:26.835Z,98772.58
2022-10-22T06:21:54.738Z,98771.77
2022-10-22T06:24:22.637Z,98768.00
2022-10-22T06:26:51.720Z,98776.40
2022-10-22T06:29:19.828Z,98786.13
2022-10-22T06:31:48.242Z,98791.45
2022-10-22T06:34:18.922Z,98788.16
2022-10-22T06:36:47.600Z,98784.83
2022-10-22T06:39:17.160Z,98787.58
2022-10-22T06:41:45.731Z,98784.46
2022-10-22T06:44:18.193Z,98790.17
2022-10-22T06:46:48.973Z,98798.42
2022-10-22T06:49:17.246Z,98798.59
2022-10-22T06:51:45.493Z,98799.30
2022-10-22T06:54:13.265Z,98807.91
2022-10-22T06:56:41.158Z,98812.85
2022-10-22T06:59:08.980Z,98810.58
2022-10-22T07:01:37.745Z,98807.91
2022-10-22T07:04:08.965Z,98809.99
2022-10-22T07:06:37.217Z,98810.23
2022-10-22T07:09:05.108Z,98808.30
2022-10-22T07:11:43.072Z,98811.11
2022-10-22T07:14:11.944Z,98816.48
2022-10-22T07:16:43.048Z,98821.07
2022-10-22T07:19:10.733Z,98826.65
2022-10-22T07:21:38.862Z,98819.11
2022-10-22T07:24:07.138Z,98820.27
2022-10-22T07:26:35.367Z,98828.23
2022-10-22T07:29:04.186Z,98831.13
2022-10-22T07:31:32.045Z,98832.11
2022-10-22T07:33:59.873Z,98836.76
2022-10-22T07:36:27.799Z,98838.17
2022-10-22T07:38:57.968Z,98840.21
2022-10-22T07:41:27.215Z,98840.64
2022-10-22T07:43:56.291Z,98837.46
2022-10-22T07:46:25.076Z,98841.93
2022-10-22T07:48:53.065Z,98854.00
2022-10-22T07:51:21.627Z,98847.34
2022-10-22T07:53:49.623Z,98851.30
2022-10-22T07:56:17.728Z,98849.21
2022-10-22T07:58:45.618Z,98838.60
2022-10-22T08:01:13.428Z,98837.63
2022-10-22T08:03:41.233Z,98843.05
2022-10-22T08:06:10.596Z,98842.23
2022-10-22T08:08:38.593Z,98840.84
2022-10-22T08:11:06.634Z,98848.67
2022-10-22T08:13:34.649Z,98852.34
2022-10-22T08:16:02.679Z,98857.16
2022-10-22T08:18:30.494Z,98867.35
2022-10-22T08:20:58.443Z,98869.25
2022-10-22T08:23:28.714Z,98875.45
2022-10-22T08:25:57.527Z,98875.54
2022-10-22T08:28:26.115Z,98874.67
2022-10-22T08:30:54.177Z,98871.70
2022-10-22T08:33:21.978Z,98870.48
2022-10-22T08:35:51.207Z,98869.13
2022-10-22T08:38:19.903Z,98868.84
2022-10-22T08:40:54.091Z,98860.06
2022-10-22T08:43:40.667Z,98859.45
2022-10-22T08:46:08.522Z,98862.99
2022-10-22T08:48:58.156Z,98869.11
2022-10-22T08:51:30.817Z,98866.20
2022-10-22T08:54:04.573Z,98863.05
2022-10-22T08:56:36.673Z,98858.30
2022-10-22T08:59:10.417Z,98873.34
2022-10-22T09:01:41.892Z,98878.64
2022-10-22T09:04:27.218Z,98883.52
2022-10-22T09:06:58.450Z,98888.38
2022-10-22T09:09:31.616Z,98889.14
2022-10-22T09:12:01.238Z,98886.67
2022-10-22T09:14:30.038Z,98882.63
2022-10-22T09:17:19.487Z,98883.68
2022-10-22T09:20:06.523Z,98879.72
2022-10-22T09:23:03.027Z,98879.11
2022-10-22T09:25:36.777Z,98884.60
2022-10-22T09:28:05.170Z,98886.70
2022-10-22T09:30:38.716Z,98889.16
2022-10-22T09:33:07.086Z,98888.38
2022-10-22T09:35:54.866Z,98878.42
2022-10-22T09:38:30.271Z,98879.52
2022-10-22T09:41:00.298Z,98882.73
2022-10-22T09:43:28.157Z,98883.94
2022-10-22T09:46:07.699Z,98882.89
2022-10-22T09:48:57.661Z,98885.53
2022-10-22T09:51:38.594Z,98886.16
2022-10-22T09:54:17.649Z,98885.91
2022-10-22T09:56:58.599Z,98886.36
2022-10-22T09:59:29.754Z,98884.26
2022-10-22T10:02:08.386Z,98879.17
2022-10-22T10:04:57.794Z,98876.02
2022-10-22T10:07:30.178Z,98880.91
2022-10-22T10:09:58.554Z,98890.98
2022-10-22T10:12:41.074Z,98893.98
2022-10-22T10:15:28.067Z,98887.81
2022-10-22T10:18:30.275Z,98879.68
2022-10-22T10:21:26.188Z,98872.71
2022-10-22T10:24:16.518Z,98875.27
2022-10-22T10:27:10.591Z,98879.23
2022-10-22T10:30:14.190Z,98883.81
2022-10-22T10:33:11.377Z,98888.35
2022-10-22T10:35:50.150Z,98884.71
2022-10-22T10:38:48.678Z,98888.65
2022-10-22T10:41:20.188Z,98885.00
2022-10-22T10:44:10.620Z,98885.77
2022-10-22T10:46:53.522Z,98890.95
2022-10-22T10:49:27.130Z,98889.84
2022-10-22T10:51:57.932Z,98889.80
2022-10-22T10:54:46.739Z,98881.90
2022-10-22T10:57:51.501Z,98879.00
2022-10-22T11:00:20.791Z,98875.83
2022-10-22T11:02:57.628Z,98875.49
2022-10-22T11:05:37.991Z,98879.65
2022-10-22T11:08:55.415Z,98882.26
2022-10-22T11:11:35.738Z,98884.59
2022-10-22T11:14:10.522Z,98884.38
2022-10-22T11:16:49.666Z,98888.27
2022-10-22T11:19:57.796Z,98895.48
2022-10-22T11:22:37.120Z,98901.74
2022-10-22T11:25:17.616Z,98898.64
2022-10-22T11:27:48.978Z,98900.13
2022-10-22T11:30:30.548Z,98901.23
2022-10-22T11:33:02.878Z,98905.02
2022-10-22T11:35:34.249Z,98907.36
2022-10-22T11:38:05.382Z,98897.98
2022-10-22T11:40:38.465Z,98888.77
2022-10-22T11:43:11.472Z,98891.27
2022-10-22T11:45:43.363Z,98893.81
2022-10-22T11:48:11.114Z,98894.48
2022-10-22T11:50:42.744Z,98896.07
2022-10-22T11:53:13.579Z,98893.50
2022-10-22T11:55:51.387Z,98896.23
2022-10-22T11:58:28.399Z,98892.84
2022-10-22T12:01:09.885Z,98889.38
2022-10-22T12:03:44.074Z,98885.45
2022-10-22T12:06:15.797Z,98888.89
2022-10-22T12:08:56.777Z,98886.20
2022-10-22T12:11:37.389Z,98886.77
2022-10-22T12:14:19.971Z,98887.95
2022-10-22T12:16:59.346Z,98883.56
2022-10-22T12:19:37.902Z,98887.10
2022-10-22T12:22:18.185Z,98881.02
2022-10-22T12:24:51.898Z,98878.22
2022-10-22T12:27:26.428Z,98876.45
2022-10-22T12:29:58.513Z,98875.06
2022-10-22T12:32:37.460Z,98876.04
2022-10-22T12:35:09.380Z,98880.13
2022-10-22T12:37:38.251Z,98882.32
2022-10-22T12:40:25.971Z,98883.52
2022-10-22T12:43:02.249Z,98879.58
2022-10-22T12:45:34.278Z,98879.00
2022-10-22T12:48:08.130Z,98878.80
2022-10-22T12:50:49.582Z,98876.79
2022-10-22T12:53:22.341Z,98877.44
2022-10-22T12:55:53.079Z,98878.81
2022-10-22T12:58:25.676Z,98882.90
2022-10-22T13:01:02.053Z,98881.08
2022-10-22T13:03:39.689Z,98880.60
2022-10-22T13:06:19.614Z,98883.04
2022-10-22T13:08:59.623Z,98883.00
2022-10-22T13:12:04.558Z,98885.43
2022-10-22T13:14:38.148Z,98887.88
2022-10-22T13:17:40.322Z,98887.48
2022-10-22T13:20:21.598Z,98888.23
2022-10-22T13:22:54.738Z,98892.33
2022-10-22T13:25:31.040Z,98893.27
2022-10-22T13:28:21.531Z,98895.52
2022-10-22T13:30:58.454Z,98898.50
2022-10-22T13:33:39.094Z,98901.11
2022-10-22T13:36:09.041Z,98901.11
2022-10-22T13:38:36.827Z,98903.92
2022-10-22T13:41:04.980Z,98905.25
2022-10-22T13:43:32.968Z,98906.66
2022-10-22T13:46:01.589Z,98907.20
2022-10-22T13:48:31.032Z,98909.09
2022-10-22T13:50:59.066Z,98912.25
2022-10-22T13:53:28.599Z,98912.55
2022-10-22T13:55:56.897Z,98915.08
2022-10-22T13:58:25.249Z,98914.27
2022-10-22T14:00:58.961Z,98914.96
2022-10-22T14:03:31.771Z,98913.98
2022-10-22T14:06:00.359Z,98915.04
2022-10-22T14:08:28.831Z,98923.10
2022-10-22T14:10:57.043Z,98929.42
2022-10-22T14:13:25.356Z,98927.43
2022-10-22T14:15:53.261Z,98930.95
2022-10-22T14:18:27.407Z,98931.51
2022-10-22T14:20:59.881Z,98935.71
2022-10-22T14:23:30.629Z,98938.65
2022-10-22T14:26:00.332Z,98937.91
2022-10-22T14:28:29.647Z,98939.45
2022-10-22T14:30:59.663Z,98938.10
2022-10-22T14:33:31.951Z,98940.02
2022-10-22T14:36:00.918Z,98945.95
2022-10-22T14:38:29.625Z,98946.40
2022-10-22T14:40:59.561Z,98944.20
2022-10-22T14:43:29.837Z,98945.07
2022-10-22T14:45:58.303Z,98946.39
2022-10-22T14:48:26.232Z,98947.22
2022-10-22T14:50:54.648Z,98947.80
2022-10-22T14:53:22.620Z,98941.42
2022-10-22T14:55:51.657Z,98944.56
2022-10-22T14:58:19.623Z,98944.55
2022-10-22T15:00:47.507Z,98943.00
2022-10-22T15:03:15.411Z,98945.66
2022-10-22T15:05:44.987Z,98949.44
2022-10-22T15:08:15.065Z,98951.83
2022-10-22T15:10:42.937Z,98954.73
2022-10-22T15:13:11.104Z,98957.77
2022-10-22T15:15:41.918Z,98955.66
2022-10-22T15:18:09.762Z,98958.02
2022-10-22T15:20:37.854Z,98958.10
2022-10-22T15:23:05.734Z,98961.22
2022-10-22T15:25:33.543Z,98961.26
2022-10-22T15:28:09.189Z,98961.84
2022-10-22T15:30:37.698Z,98965.66
2022-10-22T15:33:05.787Z,98968.09
2022-10-22T15:35:33.732Z,98967.85
2022-10-22T15:38:01.565Z,98963.02
2022-10-22T15:40:29.509Z,98970.58
2022-10-22T15:42:57.306Z,98973.31
2022-10-22T15:45:25.861Z,98976.98
2022-10-22T15:47:53.787Z,98977.00
2022-10-22T15:50:21.758Z,98983.19
2022-10-22T15:52:49.617Z,98987.42
2022-10-22T15:55:17.901Z,98991.33
2022-10-22T15:57:46.016Z,98992.05
2022-10-22T16:00:14.492Z,98997.59
2022-10-22T16:02:43.956Z,99001.73
2022-10-22T16:05:11.845Z,99005.48
2022-10-22T16:07:39.991Z,99008.56
2022-10-22T16:10:09.463Z,99011.50
2022-10-22T16:12:37.317Z,99015.29
2022-10-22T16:15:05.541Z,99016.70
2022-10-22T16:17:33.511Z,99023.64
2022-10-22T16:20:01.504Z,99027.20
2022-10-22T16:22:29.391Z,99032.33
2022-10-22T16:24:57.196Z,99033.39
2022-10-22T16:27:25.351Z,99039.44
2022-10-22T16:29:53.129Z,99046.50
2022-10-22T16:32:20.970Z,99045.27
2022-10-22T16:34:48.845Z,99053.68
2022-10-22T16:37:16.663Z,99058.77
2022-10-22T16:39:44.483Z,99062.89
2022-10-22T16:42:12.282Z,99064.81
2022-10-22T16:44:40.105Z,99067.80
2022-10-22T16:47:07.890Z,99073.30
2022-10-22T16:49:35.677Z,99076.98
2022-10-22T16:52:03.588Z,99081.02
2022-10-22T16:54:31.482Z,99081.59
2022-10-22T17:00:23.148Z,99093.12
2022-10-22T17:02:53.294Z,99097.34
2022-10-22T17:05:22.282Z,99101.54
2022-10-22T17:07:50.556Z,99100.34
2022-10-22T17:10:19.840Z,99098.98
2022-10-22T17:12:48.955Z,99097.84
2022-10-22T17:15:17.134Z,99102.33
2022-10-22T17:17:48.456Z,99104.82
2022-10-22T17:20:16.331Z,99108.15
2022-10-22T17:22:44.375Z,99105.95
2022-10-22T17:25:19.623Z,99105.36
2022-10-22T17:27:48.372Z,99111.50
2022-10-22T17:30:22.035Z,99113.86
2022-10-22T17:32:54.104Z,99120.36
2022-10-22T17:35:23.501Z,99124.74
2022-10-22T17:37:51.365Z,99125.83
2022-10-22T17:40:19.314Z,99126.88
2022-10-22T17:42:47.609Z,99126.36
2022-10-22T17:45:16.001Z,99130.52
2022-10-22T17:47:44.071Z,99133.26
2022-10-22T17:50:12.025Z,99136.36
2022-10-22T17:52:40.030Z,99139.58
2022-10-22T17:55:08.660Z,99148.69
2022-10-22T17:57:36.497Z,99148.80
2022-10-22T18:00:04.996Z,99148.30
2022-10-22T18:02:32.851Z,99149.08
2022-10-22T18:05:00.654Z,99150.31
2022-10-22T18:07:28.555Z,99155.58
2022-10-22T18:09:56.598Z,99159.17
2022-10-22T18:12:24.397Z,99159.49
2022-10-22T18:14:52.295Z,99158.73
2022-10-22T18:17:20.277Z,99159.80
2022-10-22T18:19:49.301Z,99159.48
2022-10-22T18:22:17.141Z,99164.13
2022-10-22T18:24:44.990Z,99167.80
2022-10-22T18:27:13.056Z,99167.75
2022-10-22T18:29:40.858Z,99169.26
2022-10-22T18:32:13.160Z,99165.92
2022-10-22T18:34:41.367Z,99162.95
2022-10-22T18:37:09.550Z,99161.29
2022-10-22T18:39:37.364Z,99161.34
2022-10-22T18:42:07.151Z,99162.24
2022-10-22T18:44:35.964Z,99166.48
2022-10-22T18:47:03.914Z,99163.66
2022-10-22T18:49:31.722Z,99162.77
2022-10-22T18:51:59.625Z,99165.98
2022-10-22T18:54:27.489Z,99164.52
2022-10-22T18:57:00.571Z,99162.72
2022-10-22T18:59:30.432Z,99166.22
2022-10-22T19:01:59.703Z,99168.16
2022-10-22T19:04:33.227Z,99169.96
2022-10-22T19:07:01.202Z,99169.14
2022-10-22T19:09:31.941Z,99175.72
2022-10-22T19:11:59.973Z,99177.88
2022-10-22T19:14:28.492Z,99179.82
2022-10-22T19:16:56.442Z,99185.99
2022-10-22T19:19:24.787Z,99182.73
2022-10-22T19:21:52.884Z,99183.88
2022-10-22T19:24:21.066Z,99184.40
2022-10-22T19:26:50.086Z,99187.48
2022-10-22T19:29:20.934Z,99193.83
2022-10-22T19:31:51.091Z,99198.80
2022-10-22T19:34:19.853Z,99198.05
2022-10-22T19:36:47.766Z,99204.92
2022-10-22T19:39:17.252Z,99206.15
2022-10-22T19:41:45.446Z,99203.48
2022-10-22T19:44:13.299Z,99202.45
2022-10-22T19:46:42.344Z,99205.09
2022-10-22T19:49:11.306Z,99207.52
2022-10-22T19:51:40.185Z,99211.04
2022-10-22T19:54:18.350Z,99214.00
2022-10-22T19:56:47.575Z,99215.70
2022-10-22T19:59:16.706Z,99221.45
2022-10-22T20:01:44.520Z,99225.02
2022-10-22T20:04:15.880Z,99223.95
2022-10-22T20:06:44.806Z,99227.45
2022-10-22T20:09:13.188Z,99231.88
2022-10-22T20:11:41.328Z,99227.07
2022-10-22T20:14:09.214Z,99227.66
2022-10-22T20:16:37.378Z,99230.50
2022-10-22T20:19:06.742Z,99230.23
2022-10-22T20:21:35.538Z,99231.61
2022-10-22T20:24:04.407Z,99237.02
2022-10-22T20:26:32.318Z,99241.66
2022-10-22T20:29:00.365Z,99246.19
2022-10-22T20:31:29.702Z,99248.27
2022-10-22T20:33:59.690Z,99248.29
2022-10-22T20:36:28.962Z,99249.14
2022-10-22T20:39:03.450Z,99248.71
2022-10-22T20:41:34.041Z,99255.20
2022-10-22T20:44:01.939Z,99250.67
2022-10-22T20:46:32.036Z,99251.98
2022-10-22T20:49:02.795Z,99247.77
2022-10-22T20:51:31.516Z,99248.52
2022-10-22T20:53:59.554Z,99250.69
2022-10-22T20:56:28.269Z,99252.63
2022-10-22T20:59:04.856Z,99253.89
2022-10-22T21:01:34.354Z,99250.65
2022-10-22T21:04:02.207Z,99252.10
2022-10-22T21:06:30.095Z,99252.40
2022-10-22T21:08:58.072Z,99254.75
2022-10-22T21:11:26.306Z,99257.71
2022-10-22T21:13:54.111Z,99258.98
2022-10-22T21:16:22.010Z,99259.11
2022-10-22T21:18:50.024Z,99263.31
2022-10-22T21:21:19.142Z,99267.15
2022-10-22T21:23:47.199Z,99265.46
2022-10-22T21:26:15.029Z,99269.25
2022-10-22T21:28:42.901Z,99271.02
2022-10-22T21:31:18.679Z,99271.73
2022-10-22T21:33:46.718Z,99274.20
2022-10-22T21:36:16.989Z,99276.16
2022-10-22T21:38:47.100Z,99279.84
2022-10-22T21:41:17.041Z,99279.41
2022-10-22T21:43:45.695Z,99278.44
2022-10-22T21:46:16.594Z,99280.30
2022-10-22T21:48:45.637Z,99286.95
2022-10-22T21:51:16.436Z,99282.95
2022-10-22T21:53:45.612Z,99284.34
2022-10-22T21:56:18.651Z,99282.23
2022-10-22T21:58:46.611Z,99283.69
2022-10-22T22:01:15.422Z,99284.05
2022-10-22T22:03:45.982Z,99279.91
2022-10-22T22:06:15.321Z,99280.13
2022-10-22T22:08:45.196Z,99280.20
2022-10-22T22:11:19.743Z,99280.97
2022-10-22T22:13:48.811Z,99280.95
2022-10-22T22:16:25.431Z,99285.41
2022-10-22T22:19:01.716Z,99283.37
2022-10-22T22:21:29.865Z,99287.08
2022-10-22T22:23:58.452Z,99288.67
2022-10-22T22:26:29.873Z,99292.58
2022-10-22T22:28:59.608Z,99293.13
2022-10-22T22:31:30.373Z,99292.98
2022-10-22T22:34:10.458Z,99291.23
2022-10-22T22:36:41.215Z,99290.55
2022-10-22T22:39:12.648Z,99289.63
2022-10-22T22:41:42.348Z,99294.48
2022-10-22T22:44:10.358Z,99293.21
2022-10-22T22:46:38.524Z,99296.11
2022-10-22T22:49:07.037Z,99295.94
2022-10-22T22:51:34.858Z,99296.33
2022-10-22T22:54:02.808Z,99294.84
2022-10-22T22:56:34.335Z,99300.65
2022-10-22T22:59:03.896Z,99301.84
2022-10-22T23:01:37.395Z,99304.77
2022-10-22T23:04:12.085Z,99299.63
2022-10-22T23:06:40.194Z,99302.53
2022-10-22T23:09:10.426Z,99304.27
2022-10-22T23:11:39.811Z,99305.78
2022-10-22T23:14:11.822Z,99312.20
2022-10-22T23:16:44.231Z,99311.21
2022-10-22T23:19:14.654Z,99307.98
2022-10-22T23:21:47.730Z,99310.06
2022-10-22T23:24:17.842Z,99309.27
2022-10-22T23:26:48.051Z,99304.78
2022-10-22T23:29:19.594Z,99299.98
2022-10-22T23:31:48.757Z,99300.90
2022-10-22T23:36:53.062Z,99297.48
2022-10-22T23:39:23.901Z,99297.12
2022-10-22T23:41:53.464Z,99298.13
2022-10-22T23:44:22.867Z,99303.13
2022-10-22T23:46:51.224Z,99303.11
2022-10-22T23:49:19.333Z,99301.23
2022-10-22T23:51:48.027Z,99303.29
2022-10-22T23:54:18.350Z,99306.20
2022-10-22T23:56:46.682Z,99299.86
